createdAt,value
2019-06-26T14:37:20.361Z,35.71
2019-06-26T14:38:20.331Z,35.77
2019-06-26T14:39:20.324Z,35.68
2019-06-26T14:40:20.487Z,35.62
2019-06-26T14:41:20.303Z,35.60
2019-06-26T14:42:20.326Z,35.62
2019-06-26T14:43:20.291Z,35.63
2019-06-26T14:44:20.282Z,35.63
2019-06-26T14:45:20.289Z,35.63
2019-06-26T14:46:20.265Z,35.68
2019-06-26T14:47:20.275Z,35.72
2019-06-26T14:48:20.256Z,35.75
2019-06-26T14:49:20.237Z,35.75
2019-06-26T14:50:20.230Z,35.78
2019-06-26T14:51:20.228Z,35.78
2019-06-26T14:52:20.218Z,35.77
2019-06-26T14:53:20.211Z,35.75
2019-06-26T14:54:20.191Z,35.75
2019-06-26T14:55:20.188Z,35.72
2019-06-26T14:56:20.189Z,35.68
2019-06-26T14:57:20.173Z,35.62
2019-06-26T14:58:20.172Z,35.53
2019-06-26T14:59:20.150Z,35.44
2019-06-26T15:00:20.134Z,35.40
2019-06-26T15:01:20.118Z,35.33
2019-06-26T15:02:20.108Z,35.29
2019-06-26T15:03:20.122Z,35.23
2019-06-26T15:04:20.110Z,35.18
2019-06-26T15:05:20.087Z,35.07
2019-06-26T15:06:20.100Z,35.02
2019-06-26T15:07:20.073Z,34.97
2019-06-26T15:08:20.069Z,34.96
2019-06-26T15:09:20.061Z,34.99
2019-06-26T15:10:20.075Z,34.96
2019-06-26T15:11:20.035Z,34.94
2019-06-26T15:12:20.022Z,34.92
2019-06-26T15:13:20.002Z,34.97
2019-06-26T15:14:20.026Z,35.02
2019-06-26T15:15:20.015Z,35.09
2019-06-26T15:16:19.997Z,35.10
2019-06-26T15:17:19.990Z,35.09
2019-06-26T15:18:19.965Z,35.02
2019-06-26T15:19:19.981Z,34.94
2019-06-26T15:20:19.986Z,34.91
2019-06-26T15:21:19.936Z,34.85
2019-06-26T15:22:19.939Z,34.81
2019-06-26T15:23:19.938Z,34.73
2019-06-26T15:24:19.920Z,34.66
2019-06-26T15:25:19.920Z,34.64
2019-06-26T15:26:19.923Z,34.58
2019-06-26T15:27:19.878Z,34.44
2019-06-26T15:28:19.858Z,34.31
2019-06-26T15:29:19.849Z,34.17
2019-06-26T15:30:19.858Z,34.06
2019-06-26T15:31:19.865Z,33.98
2019-06-26T15:32:19.830Z,33.95
2019-06-26T15:33:19.810Z,33.94
2019-06-26T15:34:19.826Z,33.90
2019-06-26T15:35:19.814Z,33.78
2019-06-26T15:36:19.803Z,33.63
2019-06-26T15:37:19.782Z,33.53
2019-06-26T15:38:19.799Z,33.50
2019-06-26T15:39:19.767Z,33.47
2019-06-26T15:40:19.765Z,33.45
2019-06-26T15:41:19.780Z,33.41
2019-06-26T15:42:19.743Z,33.38
2019-06-26T15:43:19.728Z,33.35
2019-06-26T15:44:19.716Z,33.35
2019-06-26T15:45:20.757Z,33.34
2019-06-26T15:46:19.695Z,33.34
2019-06-26T15:47:19.695Z,33.29
2019-06-26T15:48:19.665Z,33.31
2019-06-26T15:49:19.678Z,33.29
2019-06-26T15:50:19.654Z,33.22
2019-06-26T15:51:19.665Z,33.03
2019-06-26T15:52:19.647Z,32.84
2019-06-26T15:53:19.631Z,32.69
2019-06-26T15:54:19.656Z,32.60
2019-06-26T15:55:19.597Z,32.55
2019-06-26T15:56:19.603Z,32.55
2019-06-26T15:57:19.587Z,32.57
2019-06-26T15:58:19.591Z,32.59
2019-06-26T15:59:19.559Z,32.51
2019-06-26T16:00:19.562Z,32.52
2019-06-26T16:01:19.559Z,32.55
2019-06-26T16:02:19.530Z,32.56
2019-06-26T16:03:19.546Z,32.59
2019-06-26T16:04:19.510Z,32.59
2019-06-26T16:05:19.500Z,32.51
2019-06-26T16:06:19.482Z,32.41
2019-06-26T16:07:19.481Z,32.30
2019-06-26T16:08:19.481Z,32.22
2019-06-26T16:09:19.475Z,32.18
2019-06-26T16:10:19.462Z,32.18
2019-06-26T16:11:19.433Z,32.15
2019-06-26T16:12:19.433Z,32.15
2019-06-26T16:13:19.517Z,32.13
2019-06-26T16:14:19.426Z,31.99
2019-06-26T16:15:19.400Z,31.81
2019-06-26T16:16:19.433Z,31.62
2019-06-26T16:17:19.385Z,31.53
2019-06-26T16:18:19.416Z,31.51
2019-06-26T16:19:19.367Z,31.48
2019-06-26T16:20:19.346Z,31.39
2019-06-26T16:21:19.353Z,31.29
2019-06-26T16:22:31.639Z,31.25
2019-06-26T16:23:20.350Z,31.19
2019-06-26T16:24:19.413Z,31.19
2019-06-26T16:25:19.348Z,31.19
2019-06-26T16:26:19.300Z,31.21
2019-06-26T16:27:19.289Z,31.21
2019-06-26T16:28:19.282Z,31.21
2019-06-26T16:29:19.278Z,31.12
2019-06-26T16:30:19.263Z,31.02
2019-06-26T16:31:19.253Z,30.98
2019-06-26T16:32:19.221Z,30.95
2019-06-26T16:33:19.234Z,30.94
2019-06-26T16:34:19.220Z,30.89
2019-06-26T16:35:19.204Z,30.82
2019-06-26T16:36:19.202Z,30.75
2019-06-26T16:37:19.172Z,30.64
2019-06-26T16:38:19.174Z,30.57
2019-06-26T16:39:19.206Z,30.55
2019-06-26T16:40:19.224Z,30.54
2019-06-26T16:41:19.146Z,30.53
2019-06-26T16:42:19.124Z,30.51
2019-06-26T16:43:19.134Z,30.39
2019-06-26T16:44:19.175Z,30.31
2019-06-26T16:45:19.113Z,30.19
2019-06-26T16:46:19.084Z,30.11
2019-06-26T16:47:19.074Z,30.10
2019-06-26T16:48:19.063Z,30.11
2019-06-26T16:49:19.059Z,30.08
2019-06-26T16:50:19.066Z,30.05
2019-06-26T16:51:19.069Z,30.07
2019-06-26T16:52:19.039Z,30.02
2019-06-26T16:53:19.017Z,30.01
2019-06-26T16:54:19.010Z,29.94
2019-06-26T16:55:19.041Z,29.90
2019-06-26T16:56:19.018Z,29.87
2019-06-26T16:57:19.012Z,29.79
2019-06-26T16:58:18.959Z,29.61
2019-06-26T16:59:18.956Z,29.52
2019-06-26T17:00:18.952Z,29.46
2019-06-26T17:01:18.975Z,29.36
2019-06-26T17:02:18.920Z,29.26
2019-06-26T17:03:18.903Z,29.23
2019-06-26T17:04:18.930Z,29.18
2019-06-26T17:05:18.880Z,29.15
2019-06-26T17:06:18.901Z,29.15
2019-06-26T17:07:18.879Z,29.15
2019-06-26T17:08:18.865Z,29.16
2019-06-26T17:09:18.856Z,29.19
2019-06-26T17:10:18.845Z,29.21
2019-06-26T17:11:18.868Z,29.27
2019-06-26T17:12:18.811Z,29.33
2019-06-26T17:13:18.802Z,29.41
2019-06-26T17:14:18.794Z,29.43
2019-06-26T17:15:18.793Z,29.45
2019-06-26T17:16:18.784Z,29.43
2019-06-26T17:17:18.763Z,29.41
2019-06-26T17:18:18.767Z,29.34
2019-06-26T17:19:18.817Z,29.26
2019-06-26T17:20:18.758Z,29.19
2019-06-26T17:21:18.748Z,29.18
2019-06-26T17:22:18.719Z,29.16
2019-06-26T17:23:18.696Z,29.14
2019-06-26T17:24:18.699Z,29.06
2019-06-26T17:25:18.686Z,29.05
2019-06-26T17:26:18.710Z,28.95
2019-06-26T17:27:18.669Z,28.89
2019-06-26T17:28:18.653Z,28.86
2019-06-26T17:29:18.639Z,28.85
2019-06-26T17:30:18.641Z,28.88
2019-06-26T17:31:18.685Z,28.89
2019-06-26T17:32:18.642Z,28.90
2019-06-26T17:33:18.612Z,28.85
2019-06-26T17:34:18.590Z,28.80
2019-06-26T17:35:18.592Z,28.77
2019-06-26T17:36:18.569Z,28.76
2019-06-26T17:37:18.561Z,28.74
2019-06-26T17:38:18.551Z,28.71
2019-06-26T17:39:18.540Z,28.71
2019-06-26T17:40:18.553Z,28.70
2019-06-26T17:41:18.516Z,28.71
2019-06-26T17:42:18.504Z,28.71
2019-06-26T17:43:18.515Z,28.67
2019-06-26T17:44:18.472Z,28.64
2019-06-26T17:45:18.467Z,28.54
2019-06-26T17:46:18.453Z,28.46
2019-06-26T17:47:18.446Z,28.39
2019-06-26T17:48:18.579Z,28.34
2019-06-26T17:49:18.424Z,28.31
2019-06-26T17:50:18.417Z,28.30
2019-06-26T17:51:18.403Z,28.27
2019-06-26T17:52:18.394Z,28.24
2019-06-26T17:53:22.025Z,28.22
2019-06-26T17:54:18.378Z,28.18
2019-06-26T17:55:18.356Z,28.14
2019-06-26T17:56:18.379Z,28.06
2019-06-26T17:57:18.359Z,28.03
2019-06-26T17:58:18.340Z,27.99
2019-06-26T17:59:18.342Z,27.96
2019-06-26T18:00:18.320Z,27.88
2019-06-26T18:01:18.309Z,27.84
2019-06-26T18:02:18.287Z,27.82
2019-06-26T18:03:18.268Z,27.82
2019-06-26T18:04:18.278Z,27.77
2019-06-26T18:05:18.347Z,27.72
2019-06-26T18:06:18.256Z,27.72
2019-06-26T18:07:18.230Z,27.72
2019-06-26T18:08:18.234Z,27.72
2019-06-26T18:09:18.331Z,27.78
2019-06-26T18:10:18.199Z,27.77
2019-06-26T18:11:18.179Z,27.75
2019-06-26T18:12:18.184Z,27.72
2019-06-26T18:13:18.170Z,27.67
2019-06-26T18:14:18.214Z,27.65
2019-06-26T18:15:18.155Z,27.63
2019-06-26T18:16:18.170Z,27.65
2019-06-26T18:17:22.443Z,27.65
2019-06-26T18:18:18.225Z,27.67
2019-06-26T18:19:18.112Z,27.67
2019-06-26T18:20:18.100Z,27.67
2019-06-26T18:21:18.135Z,27.67
2019-06-26T18:22:18.085Z,27.67
2019-06-26T18:23:18.053Z,27.69
2019-06-26T18:24:18.062Z,27.66
2019-06-26T18:25:18.042Z,27.63
2019-06-26T18:26:18.048Z,27.59
2019-06-26T18:27:18.027Z,27.54
2019-06-26T18:28:18.004Z,27.49
2019-06-26T18:29:17.994Z,27.43
2019-06-26T18:30:18.005Z,27.37
2019-06-26T18:31:17.987Z,27.36
2019-06-26T18:32:17.976Z,27.32
2019-06-26T18:33:17.959Z,27.31
2019-06-26T18:34:17.956Z,27.28
2019-06-26T18:35:17.938Z,27.27
2019-06-26T18:36:17.926Z,27.18
2019-06-26T18:37:17.930Z,27.09
2019-06-26T18:38:17.921Z,27.03
2019-06-26T18:39:17.906Z,26.99
2019-06-26T18:40:17.909Z,26.88
2019-06-26T18:41:18.738Z,26.81
2019-06-26T18:42:17.847Z,26.81
2019-06-26T18:43:17.859Z,26.82
2019-06-26T18:44:17.828Z,26.85
2019-06-26T18:45:17.821Z,26.84
2019-06-26T18:46:17.821Z,26.84
2019-06-26T18:47:17.809Z,26.80
2019-06-26T18:48:17.802Z,26.75
2019-06-26T18:49:17.779Z,26.70
2019-06-26T18:50:17.770Z,26.72
2019-06-26T18:51:17.803Z,26.69
2019-06-26T18:52:17.747Z,26.69
2019-06-26T18:53:17.730Z,26.70
2019-06-26T18:54:17.721Z,26.70
2019-06-26T18:55:17.713Z,26.72
2019-06-26T18:56:17.701Z,26.67
2019-06-26T18:57:17.699Z,26.62
2019-06-26T18:58:17.704Z,26.52
2019-06-26T18:59:17.685Z,26.45
2019-06-26T19:00:17.670Z,26.44
2019-06-26T19:01:17.653Z,26.40
2019-06-26T19:02:17.648Z,26.39
2019-06-26T19:03:17.640Z,26.36
2019-06-26T19:04:17.613Z,26.39
2019-06-26T19:05:17.601Z,26.36
2019-06-26T19:06:17.616Z,26.33
2019-06-26T19:07:17.583Z,26.30
2019-06-26T19:08:17.576Z,26.26
2019-06-26T19:09:17.563Z,26.20
2019-06-26T19:10:17.606Z,26.18
2019-06-26T19:11:17.549Z,26.10
2019-06-26T19:12:17.537Z,26.02
2019-06-26T19:13:20.224Z,26.01
2019-06-26T19:14:17.504Z,25.99
2019-06-26T19:15:17.508Z,25.98
2019-06-26T19:16:17.505Z,25.92
2019-06-26T19:17:17.489Z,25.87
2019-06-26T19:18:17.483Z,25.83
2019-06-26T19:19:17.446Z,25.83
2019-06-26T19:20:17.448Z,25.83
2019-06-26T19:21:17.427Z,25.82
2019-06-26T19:22:17.450Z,25.79
2019-06-26T19:23:17.417Z,25.75
2019-06-26T19:24:17.397Z,25.70
2019-06-26T19:25:17.397Z,25.62
2019-06-26T19:26:17.368Z,25.55
2019-06-26T19:27:17.381Z,25.52
2019-06-26T19:28:17.349Z,25.47
2019-06-26T19:29:17.380Z,25.43
2019-06-26T19:30:17.343Z,25.40
2019-06-26T19:31:17.331Z,25.39
2019-06-26T19:32:17.336Z,25.36
2019-06-26T19:33:17.329Z,25.36
2019-06-26T19:34:17.289Z,25.33
2019-06-26T19:35:19.619Z,25.30
2019-06-26T19:36:17.303Z,25.25
2019-06-26T19:37:17.270Z,25.17
2019-06-26T19:38:17.287Z,25.08
2019-06-26T19:39:20.531Z,25.02
2019-06-26T19:40:17.230Z,24.96
2019-06-26T19:41:17.222Z,24.91
2019-06-26T19:42:17.214Z,24.85
2019-06-26T19:43:17.194Z,24.85
2019-06-26T19:44:17.196Z,24.85
2019-06-26T19:45:17.229Z,24.81
2019-06-26T19:46:17.486Z,24.81
2019-06-26T19:47:17.152Z,24.77
2019-06-26T19:48:17.158Z,24.69
2019-06-26T19:49:17.135Z,24.64
2019-06-26T19:50:17.137Z,24.61
2019-06-26T19:51:17.134Z,24.60
2019-06-26T19:52:17.095Z,24.57
2019-06-26T19:53:17.098Z,24.55
2019-06-26T19:54:26.719Z,24.57
2019-06-26T19:55:18.125Z,24.57
2019-06-26T19:56:20.101Z,24.55
2019-06-26T19:57:17.036Z,24.53
2019-06-26T19:58:21.318Z,24.46
2019-06-26T19:59:17.037Z,24.42
2019-06-26T20:00:17.019Z,24.34
2019-06-26T20:01:16.997Z,24.31
2019-06-26T20:02:17.000Z,24.30
2019-06-26T20:03:16.989Z,24.24
2019-06-26T20:04:16.966Z,24.22
2019-06-26T20:05:16.957Z,24.18
2019-06-26T20:06:16.936Z,24.16
2019-06-26T20:07:16.960Z,24.13
2019-06-26T20:08:16.940Z,24.13
2019-06-26T20:09:16.907Z,24.10
2019-06-26T20:10:16.917Z,24.09
2019-06-26T20:11:16.900Z,24.03
2019-06-26T20:12:16.876Z,24.02
2019-06-26T20:13:16.877Z,23.98
2019-06-26T20:14:16.871Z,23.97
2019-06-26T20:15:16.871Z,23.95
2019-06-26T20:16:16.859Z,23.94
2019-06-26T20:17:16.826Z,23.94
2019-06-26T20:18:16.822Z,23.90
2019-06-26T20:19:16.810Z,23.88
2019-06-26T20:20:16.809Z,23.83
2019-06-26T20:21:16.799Z,23.78
2019-06-26T20:22:16.780Z,23.75
2019-06-26T20:23:16.771Z,23.70
2019-06-26T20:24:16.779Z,23.69
2019-06-26T20:25:16.753Z,23.65
2019-06-26T20:26:16.720Z,23.61
2019-06-26T20:27:16.751Z,23.60
2019-06-26T20:28:16.701Z,23.58
2019-06-26T20:29:16.705Z,23.60
2019-06-26T20:30:16.704Z,23.60
2019-06-26T20:31:16.729Z,23.61
2019-06-26T20:32:16.674Z,23.61
2019-06-26T20:33:16.662Z,23.61
2019-06-26T20:34:16.666Z,23.58
2019-06-26T20:35:16.632Z,23.55
2019-06-26T20:36:16.625Z,23.51
2019-06-26T20:37:16.685Z,23.48
2019-06-26T20:38:16.605Z,23.42
2019-06-26T20:39:23.633Z,23.36
2019-06-26T20:40:16.563Z,23.32
2019-06-26T20:41:16.564Z,23.27
2019-06-26T20:42:16.560Z,23.27
2019-06-26T20:43:16.544Z,23.23
2019-06-26T20:44:16.524Z,23.20
2019-06-26T20:45:16.524Z,23.20
2019-06-26T20:46:16.519Z,23.17
2019-06-26T20:47:16.495Z,23.16
2019-06-26T20:48:16.494Z,23.16
2019-06-26T20:49:16.478Z,23.13
2019-06-26T20:50:16.465Z,23.09
2019-06-26T20:51:16.455Z,23.00
2019-06-26T20:52:16.449Z,22.94
2019-06-26T20:53:16.425Z,22.88
2019-06-26T20:54:16.426Z,22.83
2019-06-26T20:55:16.414Z,22.80
2019-06-26T20:56:16.405Z,22.79
2019-06-26T20:57:16.393Z,22.79
2019-06-26T20:58:16.387Z,22.79
2019-06-26T20:59:16.370Z,22.77
2019-06-26T21:00:16.367Z,22.73
2019-06-26T21:01:16.352Z,22.72
2019-06-26T21:02:16.342Z,22.67
2019-06-26T21:03:16.317Z,22.64
2019-06-26T21:04:16.311Z,22.61
2019-06-26T21:05:16.308Z,22.60
2019-06-26T21:06:16.330Z,22.60
2019-06-26T21:07:16.282Z,22.61
2019-06-26T21:08:16.270Z,22.61
2019-06-26T21:09:16.279Z,22.57
2019-06-26T21:10:16.247Z,22.54
2019-06-26T21:11:16.230Z,22.51
2019-06-26T21:12:16.240Z,22.49
2019-06-26T21:13:16.223Z,22.46
2019-06-26T21:14:16.200Z,22.49
2019-06-26T21:15:16.191Z,22.47
2019-06-26T21:16:16.183Z,22.45
2019-06-26T21:17:16.181Z,22.42
2019-06-26T21:18:16.171Z,22.39
2019-06-26T21:19:16.154Z,22.37
2019-06-26T21:20:16.130Z,22.36
2019-06-26T21:21:16.135Z,22.33
2019-06-26T21:22:16.154Z,22.30
2019-06-26T21:23:18.687Z,22.27
2019-06-26T21:24:16.106Z,22.22
2019-06-26T21:25:18.835Z,22.20
2019-06-26T21:26:16.095Z,22.17
2019-06-26T21:27:16.062Z,22.12
2019-06-26T21:28:16.054Z,22.03
2019-06-26T21:29:16.060Z,21.99
2019-06-26T21:30:16.033Z,21.90
2019-06-26T21:31:16.024Z,21.83
2019-06-26T21:32:16.015Z,21.80
2019-06-26T21:33:16.017Z,21.80
2019-06-26T21:34:15.996Z,21.80
2019-06-26T21:35:15.987Z,21.80
2019-06-26T21:36:15.994Z,21.74
2019-06-26T21:37:15.953Z,21.67
2019-06-26T21:38:15.967Z,21.62
2019-06-26T21:39:15.954Z,21.54
2019-06-26T21:40:15.924Z,21.52
2019-06-26T21:41:15.933Z,21.49
2019-06-26T21:42:15.927Z,21.44
2019-06-26T21:43:15.954Z,21.40
2019-06-26T21:44:15.884Z,21.34
2019-06-26T21:45:19.159Z,21.32
2019-06-26T21:46:15.855Z,21.31
2019-06-26T21:47:15.846Z,21.24
2019-06-26T21:48:15.855Z,21.19
2019-06-26T21:49:15.853Z,21.17
2019-06-26T21:50:15.817Z,21.13
2019-06-26T21:51:15.814Z,21.04
2019-06-26T21:52:15.820Z,20.98
2019-06-26T21:53:15.809Z,20.95
2019-06-26T21:54:15.776Z,20.92
2019-06-26T21:55:15.758Z,20.88
2019-06-26T21:56:15.747Z,20.82
2019-06-26T21:57:15.737Z,20.79
2019-06-26T21:58:15.760Z,20.76
2019-06-26T21:59:15.737Z,20.74
2019-06-26T22:00:15.800Z,20.69
2019-06-26T22:01:15.698Z,20.62
2019-06-26T22:02:15.688Z,20.57
2019-06-26T22:03:15.668Z,20.48
2019-06-26T22:04:15.679Z,20.38
2019-06-26T22:05:15.672Z,20.33
2019-06-26T22:06:15.654Z,20.35
2019-06-26T22:07:15.648Z,20.35
2019-06-26T22:08:15.632Z,20.35
2019-06-26T22:09:15.649Z,20.35
2019-06-26T22:10:15.601Z,20.33
2019-06-26T22:11:15.601Z,20.33
2019-06-26T22:12:15.596Z,20.29
2019-06-26T22:13:15.562Z,20.28
2019-06-26T22:14:15.565Z,20.26
2019-06-26T22:15:15.563Z,20.24
2019-06-26T22:16:15.540Z,20.20
2019-06-26T22:17:15.530Z,20.17
2019-06-26T22:18:15.514Z,20.16
2019-06-26T22:19:15.512Z,20.17
2019-06-26T22:20:15.510Z,20.20
2019-06-26T22:21:15.481Z,20.21
2019-06-26T22:22:15.471Z,20.20
2019-06-26T22:23:15.460Z,20.18
2019-06-26T22:24:15.441Z,20.18
2019-06-26T22:25:15.484Z,20.17
2019-06-26T22:26:15.422Z,20.13
2019-06-26T22:27:15.412Z,20.10
2019-06-26T22:28:15.441Z,19.96
2019-06-26T22:29:15.403Z,19.87
2019-06-26T22:30:15.442Z,19.83
2019-06-26T22:31:15.372Z,19.78
2019-06-26T22:32:15.353Z,19.73
2019-06-26T22:33:15.364Z,19.71
2019-06-26T22:34:15.342Z,19.73
2019-06-26T22:35:15.343Z,19.74
2019-06-26T22:36:15.314Z,19.74
2019-06-26T22:37:15.312Z,19.68
2019-06-26T22:38:15.316Z,19.65
2019-06-26T22:39:15.274Z,19.62
2019-06-26T22:40:15.286Z,19.61
2019-06-26T22:41:15.276Z,19.62
2019-06-26T22:42:15.243Z,19.61
2019-06-26T22:43:15.250Z,19.63
2019-06-26T22:44:15.236Z,19.63
2019-06-26T22:45:15.214Z,19.63
2019-06-26T22:46:15.193Z,19.59
2019-06-26T22:47:15.203Z,19.54
2019-06-26T22:48:15.199Z,19.50
2019-06-26T22:49:15.182Z,19.46
2019-06-26T22:50:15.167Z,19.48
2019-06-26T22:51:15.177Z,19.47
2019-06-26T22:52:15.145Z,19.48
2019-06-26T22:53:15.130Z,19.48
2019-06-26T22:54:15.120Z,19.50
2019-06-26T22:55:15.129Z,19.47
2019-06-26T22:56:15.095Z,19.44
2019-06-26T22:57:15.114Z,19.32
2019-06-26T22:58:15.082Z,19.25
2019-06-26T22:59:15.069Z,19.19
2019-06-26T23:00:15.056Z,19.13
2019-06-26T23:01:15.069Z,19.11
2019-06-26T23:02:15.052Z,19.04
2019-06-26T23:03:15.036Z,18.99
2019-06-26T23:04:15.029Z,18.95
2019-06-26T23:05:15.009Z,18.98
2019-06-26T23:06:14.989Z,18.94
2019-06-26T23:07:14.982Z,18.98
2019-06-26T23:08:14.978Z,18.94
2019-06-26T23:09:14.972Z,18.92
2019-06-26T23:10:15.000Z,18.88
2019-06-26T23:11:14.948Z,18.81
2019-06-26T23:12:14.960Z,18.81
2019-06-26T23:13:14.921Z,18.76
2019-06-26T23:14:14.888Z,18.72
2019-06-26T23:15:14.893Z,18.66
2019-06-26T23:16:14.878Z,18.63
2019-06-26T23:17:14.871Z,18.55
2019-06-26T23:18:14.890Z,18.57
2019-06-26T23:19:15.116Z,18.55
2019-06-26T23:20:14.829Z,18.57
2019-06-26T23:21:14.832Z,18.57
2019-06-26T23:22:14.809Z,18.57
2019-06-26T23:23:14.812Z,18.55
2019-06-26T23:24:14.821Z,18.58
2019-06-26T23:25:14.815Z,18.58
2019-06-26T23:26:24.044Z,18.57
2019-06-26T23:27:15.771Z,18.51
2019-06-26T23:28:14.750Z,18.47
2019-06-26T23:29:14.730Z,18.42
2019-06-26T23:30:14.734Z,18.41
2019-06-26T23:31:14.720Z,18.39
2019-06-26T23:32:14.700Z,18.39
2019-06-26T23:33:14.703Z,18.39
2019-06-26T23:34:14.694Z,18.37
2019-06-26T23:35:14.681Z,18.35
2019-06-26T23:36:14.660Z,18.27
2019-06-26T23:37:14.644Z,18.21
2019-06-26T23:38:14.641Z,18.18
2019-06-26T23:39:14.654Z,18.18
2019-06-26T23:40:14.621Z,18.17
2019-06-26T23:41:17.888Z,18.18
2019-06-26T23:42:14.597Z,18.18
2019-06-26T23:43:14.585Z,18.18
2019-06-26T23:44:14.586Z,18.18
2019-06-26T23:45:14.562Z,18.20
2019-06-26T23:46:14.554Z,18.20
2019-06-26T23:47:14.554Z,18.17
2019-06-26T23:48:14.545Z,18.18
2019-06-26T23:49:14.513Z,18.17
2019-06-26T23:50:14.502Z,18.14
2019-06-26T23:51:14.502Z,18.15
2019-06-26T23:52:14.484Z,18.14
2019-06-26T23:53:14.473Z,18.17
2019-06-26T23:54:14.452Z,18.14
2019-06-26T23:55:14.456Z,18.14
2019-06-26T23:56:14.441Z,18.14
2019-06-26T23:57:14.435Z,18.15
2019-06-26T23:58:14.413Z,18.17
2019-06-26T23:59:14.407Z,18.15
